Time;durP1;ratioP1;P1;durP2;ratioP2;P2;SDS_P1;SDS_P2;PMS_P1;PMS_P2;Temp;Humidity;BMP_temperature;BMP_pressure;BME280_temperature;BME280_humidity;BME280_pressure;Samples;Min_cycle;Max_cycle;Signal;HPM_P1;HPM_P2
2023/06/28 00:00:18;;;;;;;5.25;3.10;;;;;;;15.58;61.23;101250.03;680569;29;1296;-77
2023/06/28 00:00:39;;;;;;;5.30;3.00;;;;;;;15.62;60.98;101258.84;685849;28;1094;-77
2023/06/28 00:01:00;;;;;;;5.68;3.00;;;;;;;15.60;60.94;101250.94;687864;28;1169;-77
2023/06/28 00:01:21;;;;;;;4.75;2.78;;;;;;;15.54;60.89;101248.19;688214;28;1174;-76
2023/06/28 00:01:41;;;;;;;6.43;2.88;;;;;;;15.58;60.90;101252.66;684785;28;1669;-77
2023/06/28 00:02:02;;;;;;;6.87;3.00;;;;;;;15.58;60.94;101257.91;682596;29;1066;-77
2023/06/28 00:02:23;;;;;;;9.55;3.50;;;;;;;15.63;60.94;101261.47;682891;29;1176;-77
2023/06/28 00:02:47;;;;;;;8.48;3.60;;;;;;;15.58;60.94;101262.28;680069;29;1139;-77
2023/06/28 00:03:10;;;;;;;8.02;3.30;;;;;;;15.57;60.88;101250.91;681691;29;1262;-76
2023/06/28 00:03:31;;;;;;;5.85;3.10;;;;;;;15.56;60.86;101246.47;682643;29;1201;-77
2023/06/28 00:03:52;;;;;;;6.28;3.00;;;;;;;15.57;60.88;101256.16;680038;29;1341;-77
2023/06/28 00:04:13;;;;;;;5.60;2.90;;;;;;;15.60;60.78;101261.44;682570;29;1797;-77
2023/06/28 00:04:33;;;;;;;5.10;2.70;;;;;;;15.58;60.80;101254.38;678375;29;1155;-76
2023/06/28 00:04:54;;;;;;;4.40;2.50;;;;;;;15.54;60.85;101250.81;679130;29;1214;-76
2023/06/28 00:05:15;;;;;;;5.38;2.60;;;;;;;15.49;60.66;101234.13;679963;29;1689;-77
2023/06/28 00:05:35;;;;;;;6.00;2.63;;;;;;;15.52;61.02;101247.28;684668;28;1061;-76
2023/06/28 00:05:56;;;;;;;6.32;2.60;;;;;;;15.59;60.95;101257.06;690869;28;997;-77
2023/06/28 00:06:19;;;;;;;6.95;2.60;;;;;;;15.52;60.92;101238.50;684810;28;1077;-77
2023/06/28 00:06:40;;;;;;;7.03;2.72;;;;;;;15.51;60.96;101244.63;682784;28;1159;-77
2023/06/28 00:07:00;;;;;;;6.50;2.90;;;;;;;15.53;60.79;101243.81;679771;29;1051;-76
2023/06/28 00:07:21;;;;;;;5.25;2.85;;;;;;;15.49;60.86;101239.38;677370;29;1176;-77
2023/06/28 00:07:42;;;;;;;5.25;2.97;;;;;;;15.52;60.93;101246.41;677658;29;1119;-77
2023/06/28 00:08:03;;;;;;;6.20;2.97;;;;;;;15.52;60.82;101247.28;682181;29;1026;-77
2023/06/28 00:08:23;;;;;;;7.35;3.20;;;;;;;15.54;60.91;101248.19;682713;28;1183;-77
2023/06/28 00:08:45;;;;;;;8.80;3.25;;;;;;;15.51;60.79;101249.91;683119;28;1152;-77
2023/06/28 00:09:06;;;;;;;8.48;3.20;;;;;;;15.53;60.86;101246.44;682479;29;1221;-77
2023/06/28 00:09:28;;;;;;;6.40;2.90;;;;;;;15.52;60.83;101246.41;682578;29;1776;-77
2023/06/28 00:09:48;;;;;;;5.82;2.80;;;;;;;15.53;60.99;101241.16;685522;28;832;-76
2023/06/28 00:10:09;;;;;;;6.13;3.08;;;;;;;15.47;61.06;101234.06;677151;29;1496;-77
2023/06/28 00:10:30;;;;;;;6.72;3.00;;;;;;;15.47;61.10;101236.72;679348;29;1403;-77
2023/06/28 00:10:50;;;;;;;6.53;2.80;;;;;;;15.48;61.01;101240.22;680295;29;1106;-78
2023/06/28 00:11:11;;;;;;;8.13;2.80;;;;;;;15.47;61.21;101238.44;679949;29;1030;-78
2023/06/28 00:11:31;;;;;;;9.65;2.90;;;;;;;15.45;61.05;101237.53;682579;29;1203;-78
2023/06/28 00:11:52;;;;;;;7.32;2.95;;;;;;;15.46;61.00;101240.22;680116;29;1173;-78
2023/06/28 00:12:13;;;;;;;7.27;3.00;;;;;;;15.56;61.02;101253.50;679521;29;1327;-78
2023/06/28 00:12:35;;;;;;;5.27;2.90;;;;;;;15.48;61.00;101242.84;684489;28;1207;-77
2023/06/28 00:12:55;;;;;;;6.20;3.10;;;;;;;15.54;61.01;101249.97;683155;28;1088;-78
2023/06/28 00:13:17;;;;;;;6.68;3.00;;;;;;;15.53;61.04;101245.53;679988;29;1135;-78
2023/06/28 00:13:38;;;;;;;6.13;3.00;;;;;;;15.53;61.10;101243.81;682492;29;1224;-78
2023/06/28 00:13:59;;;;;;;5.50;2.70;;;;;;;15.53;61.20;101243.81;680062;29;1244;-78
2023/06/28 00:14:19;;;;;;;5.50;2.88;;;;;;;15.52;61.10;101242.03;680218;29;1290;-78
2023/06/28 00:14:40;;;;;;;5.87;2.97;;;;;;;15.60;61.18;101250.03;682016;29;1251;-78
2023/06/28 00:15:01;;;;;;;6.38;3.15;;;;;;;15.59;61.23;101258.78;679858;29;1543;-77
2023/06/28 00:15:21;;;;;;;5.30;2.80;;;;;;;15.58;61.11;101252.66;680055;29;1231;-75
2023/06/28 00:15:43;;;;;;;4.55;2.80;;;;;;;15.54;61.17;101239.44;677567;29;1147;-75
2023/06/28 00:16:04;;;;;;;4.85;2.80;;;;;;;15.58;61.06;101247.41;678105;29;1367;-77
2023/06/28 00:16:24;;;;;;;5.55;2.80;;;;;;;15.57;61.37;101250.00;682774;28;1970;-76
2023/06/28 00:16:45;;;;;;;6.05;2.90;;;;;;;15.57;60.96;101250.00;685288;28;1233;-76
2023/06/28 00:17:06;;;;;;;5.90;3.00;;;;;;;15.59;61.12;101243.91;679597;29;1125;-76
2023/06/28 00:17:30;;;;;;;6.65;3.30;;;;;;;15.60;61.09;101247.41;681959;28;1160;-76
2023/06/28 00:17:51;;;;;;;6.10;3.25;;;;;;;15.59;61.15;101248.25;677069;29;2016;-76
2023/06/28 00:18:12;;;;;;;7.55;3.30;;;;;;;15.60;61.16;101250.94;681372;29;1478;-76
2023/06/28 00:18:34;;;;;;;6.40;3.10;;;;;;;15.65;61.05;101258.88;680408;29;1331;-76
2023/06/28 00:19:00;;;;;;;8.15;3.13;;;;;;;15.57;61.15;101250.91;677632;29;1137;-76
2023/06/28 00:19:26;;;;;;;8.10;3.35;;;;;;;15.56;61.23;101254.34;676548;29;1185;-76
2023/06/28 00:19:49;;;;;;;6.45;3.10;;;;;;;15.58;61.19;101246.50;677702;29;772;-76
2023/06/28 00:20:11;;;;;;;6.32;3.30;;;;;;;15.60;61.17;101257.91;683048;28;1929;-76
2023/06/28 00:20:32;;;;;;;7.20;3.38;;;;;;;15.58;61.14;101250.03;678734;29;1193;-76
2023/06/28 00:20:52;;;;;;;6.73;3.17;;;;;;;15.56;61.30;101250.88;681321;28;1255;-77
2023/06/28 00:21:13;;;;;;;5.88;3.00;;;;;;;15.53;61.17;101246.44;682643;29;1063;-77
2023/06/28 00:21:34;;;;;;;5.60;2.90;;;;;;;15.54;61.28;101248.19;681050;29;1104;-76
2023/06/28 00:21:56;;;;;;;6.55;3.00;;;;;;;15.55;61.39;101247.31;680055;29;1112;-76
2023/06/28 00:22:17;;;;;;;7.30;2.90;;;;;;;15.61;61.10;101265.84;677576;29;1194;-76
2023/06/28 00:22:39;;;;;;;8.15;3.10;;;;;;;15.58;61.31;101257.91;679510;29;1392;-75
2023/06/28 00:23:00;;;;;;;7.25;3.13;;;;;;;15.55;61.23;101257.84;679958;29;1427;-76
2023/06/28 00:23:21;;;;;;;5.45;3.05;;;;;;;15.51;61.17;101253.44;682718;28;1101;-76
2023/06/28 00:23:42;;;;;;;5.85;3.00;;;;;;;15.46;61.34;101236.69;685577;28;1085;-77
2023/06/28 00:24:03;;;;;;;7.10;3.20;;;;;;;15.57;61.37;101266.69;683685;28;1220;-76
2023/06/28 00:24:24;;;;;;;7.78;3.50;;;;;;;15.53;61.42;101249.06;682380;28;1856;-76
2023/06/28 00:24:44;;;;;;;8.00;3.45;;;;;;;15.47;61.40;101248.97;685412;28;1239;-76
2023/06/28 00:25:06;;;;;;;6.90;3.33;;;;;;;15.51;61.59;101255.16;679858;29;1120;-76
2023/06/28 00:25:27;;;;;;;6.55;3.30;;;;;;;15.56;61.48;101264.88;682407;29;1363;-76
2023/06/28 00:25:47;;;;;;;5.57;3.13;;;;;;;15.47;61.62;101248.97;683769;28;776;-76
2023/06/28 00:26:09;;;;;;;6.20;3.13;;;;;;;15.46;61.53;101249.81;684370;28;1080;-76
2023/06/28 00:26:29;;;;;;;5.40;3.00;;;;;;;15.43;61.77;101244.53;685846;28;1210;-76
2023/06/28 00:26:50;;;;;;;6.50;3.30;;;;;;;15.49;61.60;101249.91;685204;28;1324;-76
2023/06/28 00:27:11;;;;;;;6.10;3.10;;;;;;;15.52;61.66;101251.66;684874;28;1171;-76
2023/06/28 00:27:32;;;;;;;6.97;3.20;;;;;;;15.51;61.78;101250.78;685166;28;1242;-76
2023/06/28 00:27:53;;;;;;;5.95;2.80;;;;;;;15.47;61.63;101247.22;682657;28;1176;-76
2023/06/28 00:28:14;;;;;;;7.30;3.20;;;;;;;15.45;61.67;101238.44;679965;29;1154;-76
2023/06/28 00:28:35;;;;;;;7.75;3.20;;;;;;;15.46;61.61;101248.09;684631;28;1231;-77
2023/06/28 00:28:55;;;;;;;7.85;3.20;;;;;;;15.44;61.98;101244.53;685230;28;1132;-78
2023/06/28 00:29:16;;;;;;;5.75;3.05;;;;;;;15.47;61.68;101255.13;682615;28;1318;-76
2023/06/28 00:29:37;;;;;;;6.47;3.33;;;;;;;15.44;61.82;101249.78;682242;28;1132;-76
2023/06/28 00:29:59;;;;;;;6.00;3.20;;;;;;;15.47;61.98;101244.59;682604;28;1419;-76
2023/06/28 00:30:20;;;;;;;6.35;2.95;;;;;;;15.42;61.98;101246.25;680035;29;1230;-76
2023/06/28 00:30:41;;;;;;;5.95;2.80;;;;;;;15.45;62.05;101246.34;681496;29;1185;-75
2023/06/28 00:31:02;;;;;;;6.30;2.90;;;;;;;15.44;61.96;101248.94;679900;29;1442;-76
2023/06/28 00:31:22;;;;;;;5.10;2.90;;;;;;;15.44;62.15;101251.56;680111;29;1212;-76
2023/06/28 00:31:43;;;;;;;4.70;2.80;;;;;;;15.48;61.93;101258.63;680104;29;1366;-76
2023/06/28 00:32:04;;;;;;;4.35;2.78;;;;;;;15.43;62.17;101253.28;674799;29;1206;-76
2023/06/28 00:32:27;;;;;;;4.47;2.60;;;;;;;15.39;62.17;101242.69;678164;29;1215;-76
2023/06/28 00:32:48;;;;;;;4.70;2.80;;;;;;;15.42;62.19;101245.41;681939;28;1224;-76
2023/06/28 00:33:08;;;;;;;4.97;2.85;;;;;;;15.39;62.29;101251.50;682649;29;1003;-76
2023/06/28 00:33:29;;;;;;;5.32;3.28;;;;;;;15.41;62.39;101251.50;678930;29;1247;-76
2023/06/28 00:33:50;;;;;;;5.50;3.20;;;;;;;15.41;62.34;101254.13;679080;29;1061;-76
2023/06/28 00:34:11;;;;;;;5.30;3.08;;;;;;;15.39;62.46;101251.50;677409;29;1094;-78
2023/06/28 00:34:31;;;;;;;5.00;2.90;;;;;;;15.40;62.45;101249.72;678805;29;1160;-78
2023/06/28 00:34:52;;;;;;;5.55;3.10;;;;;;;15.37;62.54;101247.06;681613;29;1447;-77
2023/06/28 00:35:14;;;;;;;5.82;3.03;;;;;;;15.40;62.29;101250.63;677391;29;1611;-78
2023/06/28 00:35:35;;;;;;;6.00;3.28;;;;;;;15.41;62.32;101248.88;681182;29;1416;-77
2023/06/28 00:35:56;;;;;;;6.43;3.20;;;;;;;15.37;62.28;101247.06;682676;29;1708;-76
2023/06/28 00:36:17;;;;;;;6.20;3.22;;;;;;;15.37;62.40;101247.06;682576;29;2005;-76
2023/06/28 00:36:38;;;;;;;5.57;3.03;;;;;;;15.37;62.35;101258.47;682026;29;1358;-76
2023/06/28 00:36:58;;;;;;;4.60;2.87;;;;;;;15.30;62.56;101240.84;680704;29;1222;-78
2023/06/28 00:37:19;;;;;;;4.45;2.88;;;;;;;15.34;62.44;101256.69;680144;29;1091;-77
2023/06/28 00:37:41;;;;;;;6.85;2.90;;;;;;;15.28;62.55;101238.16;682700;29;1311;-77
2023/06/28 00:38:02;;;;;;;7.75;2.90;;;;;;;15.30;62.66;101241.69;682487;29;1047;-77
2023/06/28 00:38:23;;;;;;;8.10;3.00;;;;;;;15.31;62.72;101247.84;681831;29;1325;-76
2023/06/28 00:38:43;;;;;;;6.82;3.17;;;;;;;15.25;62.72;101238.13;682631;29;1204;-76
2023/06/28 00:39:04;;;;;;;5.90;3.00;;;;;;;15.28;62.50;101253.94;679726;29;1103;-77
2023/06/28 00:39:24;;;;;;;6.50;3.10;;;;;;;15.23;62.69;101245.09;682888;29;1175;-76
2023/06/28 00:39:45;;;;;;;5.93;2.90;;;;;;;15.35;62.70;101257.53;682817;29;1131;-76
2023/06/28 00:40:08;;;;;;;6.07;2.92;;;;;;;15.28;62.60;101242.53;682498;29;1186;-77
2023/06/28 00:40:29;;;;;;;5.07;2.70;;;;;;;15.27;62.56;101236.41;678945;29;1402;-77
2023/06/28 00:40:50;;;;;;;4.95;2.70;;;;;;;15.29;62.74;101250.44;682802;28;1186;-78
2023/06/28 00:41:11;;;;;;;5.65;3.10;;;;;;;15.31;62.90;101247.84;678056;29;1456;-77
2023/06/28 00:41:31;;;;;;;5.40;3.00;;;;;;;15.27;62.74;101241.66;680617;29;1258;-77
2023/06/28 00:41:52;;;;;;;6.00;3.10;;;;;;;15.32;62.83;101255.75;679221;29;1305;-77
2023/06/28 00:42:13;;;;;;;5.90;2.87;;;;;;;15.28;62.81;101234.63;685151;28;1810;-77
2023/06/28 00:42:33;;;;;;;7.10;3.20;;;;;;;15.33;63.01;101241.75;683471;28;1276;-77
2023/06/28 00:42:54;;;;;;;7.80;3.60;;;;;;;15.35;62.90;101239.13;680070;29;1086;-77
2023/06/28 00:43:15;;;;;;;8.13;3.92;;;;;;;15.43;62.77;101253.28;682808;29;1245;-78
2023/06/28 00:43:37;;;;;;;8.05;3.80;;;;;;;15.35;62.70;101234.78;680594;28;1122;-77
2023/06/28 00:43:58;;;;;;;6.00;3.20;;;;;;;15.38;62.74;101243.56;677413;29;1460;-77
2023/06/28 00:44:18;;;;;;;5.70;2.80;;;;;;;15.37;62.79;101236.53;680074;29;1139;-77
2023/06/28 00:44:39;;;;;;;5.80;2.70;;;;;;;15.41;62.60;101246.22;682731;29;1290;-77
2023/06/28 00:45:00;;;;;;;5.75;2.90;;;;;;;15.42;62.73;101243.63;679945;29;1298;-77
2023/06/28 00:45:22;;;;;;;5.72;2.70;;;;;;;15.42;62.54;101246.25;680092;29;1248;-77
2023/06/28 00:45:43;;;;;;;5.20;2.75;;;;;;;15.49;62.75;101252.53;682650;29;1129;-77
2023/06/28 00:46:04;;;;;;;5.22;2.75;;;;;;;15.45;62.72;101255.94;682060;29;1868;-77
2023/06/28 00:46:25;;;;;;;5.20;3.00;;;;;;;15.42;62.67;101250.66;680175;29;1688;-77
2023/06/28 00:46:48;;;;;;;6.03;3.40;;;;;;;15.48;62.61;101261.25;682583;28;1108;-77
2023/06/28 00:47:09;;;;;;;7.60;3.70;;;;;;;15.47;62.78;101259.47;679860;29;1202;-78
2023/06/28 00:47:30;;;;;;;6.82;3.58;;;;;;;15.40;62.61;101257.63;682538;29;1260;-77
2023/06/28 00:47:52;;;;;;;6.80;3.10;;;;;;;15.43;62.62;101247.16;682739;29;1362;-77
2023/06/28 00:48:13;;;;;;;6.95;3.00;;;;;;;15.37;62.86;101244.44;677633;29;1543;-76
2023/06/28 00:48:34;;;;;;;7.65;3.05;;;;;;;15.37;62.83;101249.69;679385;29;1208;-77
2023/06/28 00:48:56;;;;;;;7.82;3.22;;;;;;;15.39;63.02;101253.22;682214;29;1199;-77
2023/06/28 00:49:16;;;;;;;9.60;3.40;;;;;;;15.35;62.90;101242.66;680118;29;1070;-77
2023/06/28 00:49:38;;;;;;;8.88;3.50;;;;;;;15.44;62.90;101254.19;677453;29;1327;-77
2023/06/28 00:50:00;;;;;;;7.68;3.67;;;;;;;15.40;63.23;101247.09;680489;29;1582;-77
2023/06/28 00:50:21;;;;;;;5.78;3.53;;;;;;;15.37;62.78;101245.34;680061;29;1101;-77
2023/06/28 00:50:42;;;;;;;5.90;3.47;;;;;;;15.35;63.06;101245.28;680170;29;1106;-76
2023/06/28 00:51:04;;;;;;;7.55;3.30;;;;;;;15.34;63.58;101240.91;679841;29;1373;-77
2023/06/28 00:51:28;;;;;;;8.25;3.30;;;;;;;15.29;63.28;101237.31;681971;29;1235;-77
2023/06/28 00:51:50;;;;;;;8.30;3.50;;;;;;;15.33;63.25;101249.66;677425;29;1108;-77
2023/06/28 00:52:12;;;;;;;6.40;3.50;;;;;;;15.34;63.45;101247.88;677423;29;1164;-77
2023/06/28 00:52:33;;;;;;;6.80;3.65;;;;;;;15.31;63.45;101251.34;680994;29;1307;-77
2023/06/28 00:52:54;;;;;;;7.25;3.55;;;;;;;15.33;63.30;101256.63;680167;29;1105;-77
2023/06/28 00:53:17;;;;;;;7.93;3.20;;;;;;;15.31;63.49;101253.97;682518;29;1189;-78
2023/06/28 00:53:38;;;;;;;6.65;2.90;;;;;;;15.32;63.56;101252.25;680078;29;1199;-76
2023/06/28 00:53:59;;;;;;;5.72;2.85;;;;;;;15.29;63.39;101252.19;679998;29;1721;-77
2023/06/28 00:54:20;;;;;;;6.40;2.88;;;;;;;15.26;63.47;101253.03;684335;28;1161;-77
2023/06/28 00:54:41;;;;;;;6.35;3.00;;;;;;;15.26;63.54;101247.78;680556;29;1049;-77
2023/06/28 00:55:03;;;;;;;5.80;3.10;;;;;;;15.26;63.67;101260.94;679914;29;1272;-77
2023/06/28 00:55:24;;;;;;;4.80;3.20;;;;;;;15.24;63.71;101254.75;681147;29;1463;-77
2023/06/28 00:55:44;;;;;;;5.65;3.30;;;;;;;15.23;63.62;101250.34;685273;28;1178;-77
2023/06/28 00:56:05;;;;;;;6.60;3.30;;;;;;;15.27;63.71;101262.69;680100;29;1295;-77
2023/06/28 00:56:27;;;;;;;6.45;3.13;;;;;;;15.28;63.79;101261.84;684258;28;1901;-77
2023/06/28 00:56:48;;;;;;;5.55;3.00;;;;;;;15.19;63.73;101253.75;679986;29;1256;-77
2023/06/28 00:57:10;;;;;;;4.50;2.90;;;;;;;15.21;63.88;101259.97;679936;29;1203;-78
2023/06/28 00:57:32;;;;;;;5.45;3.10;;;;;;;15.19;63.80;101262.53;681380;29;1319;-77
2023/06/28 00:57:52;;;;;;;7.32;3.35;;;;;;;15.19;63.73;101261.66;682787;29;1107;-77
2023/06/28 00:58:14;;;;;;;9.55;3.67;;;;;;;15.15;63.97;101263.34;679665;29;1704;-78
2023/06/28 00:58:35;;;;;;;7.57;3.50;;;;;;;15.06;63.94;101247.41;676723;29;1396;-77
2023/06/28 00:58:56;;;;;;;8.75;3.28;;;;;;;15.11;63.96;101255.38;676616;29;1244;-78
2023/06/28 00:59:17;;;;;;;9.98;3.30;;;;;;;15.04;64.09;101252.66;677486;29;1146;-77
2023/06/28 00:59:38;;;;;;;12.00;3.65;;;;;;;15.01;64.11;101249.06;678221;29;1409;-77
2023/06/28 00:59:59;;;;;;;9.95;3.70;;;;;;;14.99;64.36;101261.31;679494;29;1605;-77
2023/06/28 01:00:21;;;;;;;7.72;3.50;;;;;;;14.98;64.65;101263.03;685312;28;1045;-77
2023/06/28 01:00:45;;;;;;;5.88;3.20;;;;;;;14.92;64.67;101260.31;682711;29;1966;-78
2023/06/28 01:01:06;;;;;;;5.95;3.30;;;;;;;14.94;64.90;101269.13;682029;29;1617;-77
2023/06/28 01:01:28;;;;;;;6.88;3.55;;;;;;;14.90;64.82;101262.03;682225;29;1247;-77
2023/06/28 01:01:49;;;;;;;6.13;3.55;;;;;;;14.90;65.14;101257.66;679847;29;1222;-77
2023/06/28 01:02:10;;;;;;;5.57;3.60;;;;;;;14.87;64.95;101260.22;677370;29;1223;-77
2023/06/28 01:02:31;;;;;;;5.65;3.53;;;;;;;14.91;65.30;101261.16;676004;29;1274;-77
2023/06/28 01:02:52;;;;;;;5.60;3.35;;;;;;;14.85;65.16;101258.41;677431;29;1115;-77
2023/06/28 01:03:17;;;;;;;5.75;3.38;;;;;;;14.88;65.38;101263.75;680012;29;1101;-78
2023/06/28 01:03:38;;;;;;;6.30;3.58;;;;;;;14.88;65.37;101271.63;679877;29;1323;-77
2023/06/28 01:04:00;;;;;;;6.90;3.53;;;;;;;14.82;65.21;101261.91;677325;29;1134;-77
2023/06/28 01:04:21;;;;;;;7.63;3.60;;;;;;;14.86;65.31;101270.72;679392;29;1443;-77
2023/06/28 01:04:43;;;;;;;8.77;3.60;;;;;;;14.85;65.49;101263.66;682325;29;1169;-77
2023/06/28 01:05:04;;;;;;;8.98;3.75;;;;;;;14.88;65.25;101266.38;679252;29;1624;-77
2023/06/28 01:05:25;;;;;;;7.43;3.50;;;;;;;14.84;65.56;101257.56;680666;29;1080;-77
2023/06/28 01:05:49;;;;;;;6.47;3.50;;;;;;;14.85;65.40;101275.06;688065;28;983;-77
2023/06/28 01:06:12;;;;;;;6.00;3.42;;;;;;;14.89;65.58;101273.41;684384;28;1042;-77
2023/06/28 01:06:36;;;;;;;7.30;3.30;;;;;;;14.90;65.52;101275.16;680091;29;1073;-77
2023/06/28 01:06:59;;;;;;;7.43;3.30;;;;;;;14.84;65.64;101272.41;679326;29;1277;-77
2023/06/28 01:07:20;;;;;;;7.05;3.20;;;;;;;14.87;65.71;101267.25;679973;29;1223;-77
2023/06/28 01:07:43;;;;;;;7.07;3.30;;;;;;;14.80;65.75;101261.84;681216;29;1459;-77
2023/06/28 01:08:05;;;;;;;8.40;3.42;;;;;;;14.87;65.84;101275.13;679350;29;1476;-78
2023/06/28 01:08:27;;;;;;;7.95;3.50;;;;;;;14.86;65.57;101275.97;680035;29;1171;-77
2023/06/28 01:08:49;;;;;;;6.47;3.50;;;;;;;14.81;65.52;101257.47;674838;29;1053;-77
2023/06/28 01:09:11;;;;;;;6.22;3.20;;;;;;;14.76;65.56;101257.38;676815;29;1113;-77
2023/06/28 01:09:33;;;;;;;6.13;3.10;;;;;;;14.83;65.59;101281.16;679954;29;1280;-77
2023/06/28 01:09:56;;;;;;;5.05;3.00;;;;;;;14.78;65.36;101265.31;681603;29;1123;-77
2023/06/28 01:10:17;;;;;;;4.93;3.10;;;;;;;14.79;65.49;101261.81;687991;28;1204;-78
2023/06/28 01:10:38;;;;;;;4.75;3.08;;;;;;;14.78;65.52;101266.22;685304;28;1211;-77
2023/06/28 01:11:01;;;;;;;4.88;3.20;;;;;;;14.84;65.74;101277.66;683765;28;1179;-77
2023/06/28 01:11:22;;;;;;;6.20;3.30;;;;;;;14.78;65.79;101258.31;678024;29;1614;-77
2023/06/28 01:11:42;;;;;;;6.40;3.50;;;;;;;14.81;65.73;101262.72;677162;29;1164;-77
2023/06/28 01:12:06;;;;;;;5.97;3.20;;;;;;;14.80;65.77;101256.59;679194;29;1536;-77
2023/06/28 01:12:29;;;;;;;6.45;3.28;;;;;;;14.83;65.68;101265.41;679697;29;1433;-77
2023/06/28 01:12:50;;;;;;;7.30;3.35;;;;;;;14.81;65.75;101262.72;682614;29;1341;-77
2023/06/28 01:13:11;;;;;;;6.75;3.35;;;;;;;14.83;65.73;101265.41;681509;29;1289;-78
2023/06/28 01:13:34;;;;;;;6.60;3.20;;;;;;;14.89;66.02;101276.03;682884;28;1173;-78
2023/06/28 01:13:55;;;;;;;5.82;3.08;;;;;;;14.86;65.97;101262.84;687922;28;984;-77
2023/06/28 01:14:27;;;;;;;5.78;3.10;;;;;;;14.83;65.88;101257.50;683436;28;1066;-77
2023/06/28 01:14:48;;;;;;;6.25;3.00;;;;;;;14.84;65.90;101269.78;682770;28;1297;-78
2023/06/28 01:15:10;;;;;;;6.20;3.10;;;;;;;14.85;65.73;101263.66;679864;29;1247;-77
2023/06/28 01:15:31;;;;;;;6.07;3.13;;;;;;;14.79;65.92;101253.94;677807;29;1638;-77
2023/06/28 01:15:52;;;;;;;5.40;3.13;;;;;;;14.89;66.00;101276.03;678553;29;1123;-77
2023/06/28 01:16:13;;;;;;;5.93;3.10;;;;;;;14.85;66.00;101266.28;677424;29;1083;-78
2023/06/28 01:16:34;;;;;;;5.40;3.10;;;;;;;14.89;65.89;101283.91;680026;29;1923;-77
2023/06/28 01:16:55;;;;;;;6.03;3.20;;;;;;;14.82;65.90;101272.41;674651;29;1007;-77
2023/06/28 01:17:16;;;;;;;5.40;3.00;;;;;;;14.76;66.05;101265.28;677579;29;1124;-78
2023/06/28 01:17:37;;;;;;;5.82;3.10;;;;;;;14.75;65.91;101260.88;682321;28;1147;-77
2023/06/28 01:18:00;;;;;;;5.45;2.90;;;;;;;14.78;66.04;101265.31;679975;29;1220;-77
2023/06/28 01:18:23;;;;;;;7.30;3.25;;;;;;;14.72;66.26;101260.84;679991;29;1223;-77
2023/06/28 01:18:44;;;;;;;6.70;3.30;;;;;;;14.76;66.11;101264.41;685456;28;1054;-77
2023/06/28 01:19:07;;;;;;;6.60;3.33;;;;;;;14.72;66.25;101257.31;682352;28;1082;-78
2023/06/28 01:19:31;;;;;;;5.22;3.22;;;;;;;14.73;66.36;101265.22;682689;28;1132;-78
2023/06/28 01:19:54;;;;;;;6.82;2.97;;;;;;;14.71;66.13;101261.69;687251;28;1405;-78
2023/06/28 01:20:16;;;;;;;8.20;3.30;;;;;;;14.76;66.38;101264.41;687904;28;1191;-78
2023/06/28 01:20:37;;;;;;;7.30;3.20;;;;;;;14.74;66.45;101264.38;681044;29;1386;-77
2023/06/28 01:21:04;;;;;;;6.97;3.30;;;;;;;14.70;66.43;101254.69;676307;29;1113;-78
2023/06/28 01:21:30;;;;;;;8.30;3.22;;;;;;;14.72;66.46;101263.47;680064;29;1321;-77
2023/06/28 01:21:56;;;;;;;8.40;3.20;;;;;;;14.78;66.01;101268.84;680172;29;1195;-76
2023/06/28 01:22:16;;;;;;;7.00;3.20;;;;;;;14.78;66.01;101262.69;679892;29;1261;-75
2023/06/28 01:22:41;;;;;;;7.07;3.28;;;;;;;14.77;65.83;101256.53;680031;29;1243;-77
2023/06/28 01:23:03;;;;;;;5.25;3.40;;;;;;;14.83;66.10;101265.41;679774;29;1575;-76
2023/06/28 01:23:27;;;;;;;5.38;3.40;;;;;;;14.84;65.79;101264.53;675601;29;1238;-76
2023/06/28 01:23:48;;;;;;;4.55;3.10;;;;;;;14.83;65.92;101265.41;681795;29;1258;-76
2023/06/28 01:24:11;;;;;;;6.72;3.40;;;;;;;14.82;65.74;101261.00;679380;29;1157;-76
2023/06/28 01:24:56;;;;;;;8.40;3.60;;;;;;;14.91;65.73;101285.72;682686;29;1154;-77
2023/06/28 01:25:17;;;;;;;6.55;3.53;;;;;;;14.87;65.58;101273.34;684070;28;2010;-77
2023/06/28 01:25:38;;;;;;;6.50;3.77;;;;;;;14.84;65.69;101268.06;685246;28;1178;-77
2023/06/28 01:26:02;;;;;;;6.72;3.95;;;;;;;14.86;65.79;101271.59;682610;29;1399;-78
2023/06/28 01:26:23;;;;;;;6.70;3.70;;;;;;;14.92;65.85;101284.84;682726;28;1112;-77
2023/06/28 01:26:47;;;;;;;5.85;3.60;;;;;;;14.81;65.79;101265.34;680172;29;1223;-78
2023/06/28 01:27:11;;;;;;;6.53;3.47;;;;;;;14.81;65.67;101262.72;676212;29;1338;-77
2023/06/28 01:27:32;;;;;;;7.95;3.50;;;;;;;14.81;65.52;101267.97;685178;28;1401;-77
2023/06/28 01:27:53;;;;;;;7.63;3.40;;;;;;;14.89;65.83;101276.03;683052;29;1086;-77
2023/06/28 01:28:14;;;;;;;6.70;3.40;;;;;;;14.82;65.79;101266.25;683080;29;1037;-78
2023/06/28 01:28:36;;;;;;;5.60;3.20;;;;;;;14.84;65.69;101269.78;687561;28;1098;-78
2023/06/28 01:28:57;;;;;;;6.28;3.30;;;;;;;14.79;65.81;101265.34;684690;28;1482;-77
2023/06/28 01:29:24;;;;;;;7.18;3.47;;;;;;;14.78;65.86;101268.84;682417;29;1133;-77
2023/06/28 01:29:47;;;;;;;6.15;3.58;;;;;;;14.78;65.69;101273.19;683202;29;1183;-77
2023/06/28 01:30:11;;;;;;;5.68;3.40;;;;;;;14.78;66.01;101263.59;685461;28;1017;-77
2023/06/28 01:30:36;;;;;;;5.93;3.30;;;;;;;14.77;65.93;101269.66;684071;28;1130;-78
2023/06/28 01:30:57;;;;;;;6.70;3.60;;;;;;;14.71;65.92;101266.94;680467;29;1054;-78
2023/06/28 01:31:18;;;;;;;6.90;3.83;;;;;;;14.77;65.79;101272.28;680417;29;1127;-78
2023/06/28 01:31:40;;;;;;;7.18;3.55;;;;;;;14.76;66.02;101273.16;685775;28;1228;-78
2023/06/28 01:32:03;;;;;;;8.55;3.70;;;;;;;14.78;65.70;101279.34;685744;28;1048;-78
2023/06/28 01:32:24;;;;;;;9.45;3.78;;;;;;;14.75;66.08;101268.75;680503;29;1454;-78
2023/06/28 01:32:44;;;;;;;8.00;3.90;;;;;;;14.70;66.07;101269.53;683140;29;1088;-78
2023/06/28 01:33:05;;;;;;;6.32;3.53;;;;;;;14.76;66.07;101269.66;681834;28;1404;-78
2023/06/28 01:33:26;;;;;;;5.38;3.40;;;;;;;14.80;66.29;101282.88;681250;29;1279;-77
2023/06/28 01:33:48;;;;;;;6.40;3.53;;;;;;;14.70;66.17;101270.44;684945;28;1280;-78
2023/06/28 01:34:09;;;;;;;6.80;3.63;;;;;;;14.73;66.15;101265.22;680349;29;1486;-77
2023/06/28 01:34:29;;;;;;;6.57;3.77;;;;;;;14.73;66.04;101275.75;680417;29;1243;-78
2023/06/28 01:34:50;;;;;;;5.45;3.42;;;;;;;14.67;66.24;101270.34;678025;29;1136;-78
2023/06/28 01:35:14;;;;;;;5.57;3.60;;;;;;;14.66;66.34;101263.34;681866;29;1189;-77
2023/06/28 01:35:35;;;;;;;5.20;3.50;;;;;;;14.73;66.41;101283.63;681396;29;1082;-77
2023/06/28 01:35:57;;;;;;;6.60;3.70;;;;;;;14.74;66.65;101282.75;685495;28;1344;-77
2023/06/28 01:36:18;;;;;;;7.72;3.80;;;;;;;14.66;66.19;101265.97;682435;29;1920;-77
2023/06/28 01:36:39;;;;;;;7.32;3.65;;;;;;;14.73;66.47;101281.00;682427;29;1155;-77
2023/06/28 01:37:02;;;;;;;7.88;3.70;;;;;;;14.66;66.51;101264.25;682773;29;1061;-78
2023/06/28 01:37:23;;;;;;;6.47;3.53;;;;;;;14.71;66.41;101277.47;680405;29;1221;-77
2023/06/28 01:37:44;;;;;;;6.80;3.60;;;;;;;14.74;66.60;101281.88;680390;29;1068;-77
2023/06/28 01:38:06;;;;;;;6.95;3.95;;;;;;;14.71;66.59;101271.31;680260;29;1147;-77
2023/06/28 01:38:28;;;;;;;8.23;4.03;;;;;;;14.68;66.66;101272.13;680623;29;1151;-77
2023/06/28 01:38:51;;;;;;;8.57;3.78;;;;;;;14.70;66.58;101275.69;684425;28;1074;-77
2023/06/28 01:39:14;;;;;;;8.30;3.73;;;;;;;14.72;66.54;101278.31;683098;29;1148;-77
2023/06/28 01:39:35;;;;;;;8.43;3.90;;;;;;;14.69;66.44;101273.91;681351;29;1258;-78
2023/06/28 01:39:57;;;;;;;8.15;3.92;;;;;;;14.68;66.50;101272.13;682641;29;1114;-78
2023/06/28 01:40:19;;;;;;;6.22;3.80;;;;;;;14.68;66.80;101274.75;680439;29;1336;-77
2023/06/28 01:40:42;;;;;;;5.07;3.70;;;;;;;14.66;66.70;101268.59;677223;29;1213;-77
2023/06/28 01:41:03;;;;;;;7.35;4.13;;;;;;;14.70;66.69;101280.94;680203;29;1202;-78
2023/06/28 01:41:26;;;;;;;8.40;4.35;;;;;;;14.64;66.67;101265.06;677336;29;1241;-77
2023/06/28 01:41:47;;;;;;;8.27;4.40;;;;;;;14.71;66.88;101285.34;680599;29;964;-77
2023/06/28 01:42:08;;;;;;;7.68;4.18;;;;;;;14.68;66.79;101274.75;685437;28;1146;-78
2023/06/28 01:42:29;;;;;;;6.45;3.72;;;;;;;14.66;66.78;101269.50;685659;28;1316;-76
2023/06/28 01:42:50;;;;;;;6.55;3.60;;;;;;;14.62;66.56;101270.28;680557;29;1192;-77
2023/06/28 01:43:12;;;;;;;6.85;3.58;;;;;;;14.60;67.00;101265.84;678169;28;1042;-77